Terminal Aerodrome Forecast
Issued by NWS Blacksburg, VA

Current Version | Previous Version | Text Only | Print | Product List | Glossary Off
Versions: 1 2 3 4 5 6 7 8 9 10 11 12 13 14 15 16 17 18 19 20 21 22 23 24 25 26 27 28 29

000
FTUS41 KRNK 201740 AAA
TAFBLF
TAF AMD
KBLF 201740Z 2018/2118 26004KT P6SM VCTS BKN060CB
     FM202000 19006KT P6SM VCTS BKN060CB
      TEMPO 2020/2022 4SM SHRA OVC025
     FM202200 15006KT P6SM VCTS BKN050CB
     FM210500 12009KT P6SM VCSH BKN030
     FM210600 12009KT P6SM BKN015=

USA.gov is the U.S. government's official web portal to all federal, state and local government web resources and services.